sensor_id;sensor_type;location;lat;lon;timestamp;P1;durP1;ratioP1;P2;durP2;ratioP2
26780;SDS011;14366;49.184;8.054;2023-05-10T00:02:27;1.10;;;0.90;;
26780;SDS011;14366;49.184;8.054;2023-05-10T00:08:02;0.80;;;0.80;;
26780;SDS011;14366;49.184;8.054;2023-05-10T00:13:37;0.90;;;0.90;;
26780;SDS011;14366;49.184;8.054;2023-05-10T00:18:59;1.63;;;1.10;;
26780;SDS011;14366;49.184;8.054;2023-05-10T00:24:34;1.20;;;1.10;;
26780;SDS011;14366;49.184;8.054;2023-05-10T00:29:55;2.03;;;1.00;;
26780;SDS011;14366;49.184;8.054;2023-05-10T00:35:14;1.35;;;0.90;;
26780;SDS011;14366;49.184;8.054;2023-05-10T00:40:47;0.97;;;0.93;;
26780;SDS011;14366;49.184;8.054;2023-05-10T00:46:23;0.93;;;0.87;;
26780;SDS011;14366;49.184;8.054;2023-05-10T00:51:57;0.70;;;0.70;;
26780;SDS011;14366;49.184;8.054;2023-05-10T00:57:32;0.93;;;0.93;;
26780;SDS011;14366;49.184;8.054;2023-05-10T01:02:49;1.25;;;1.15;;
26780;SDS011;14366;49.184;8.054;2023-05-10T01:08:11;1.30;;;1.00;;
26780;SDS011;14366;49.184;8.054;2023-05-10T01:13:47;1.73;;;1.10;;
26780;SDS011;14366;49.184;8.054;2023-05-10T01:19:19;1.50;;;1.13;;
26780;SDS011;14366;49.184;8.054;2023-05-10T01:25:17;1.50;;;1.20;;
26780;SDS011;14366;49.184;8.054;2023-05-10T01:30:55;1.30;;;1.20;;
26780;SDS011;14366;49.184;8.054;2023-05-10T01:36:30;1.45;;;1.30;;
26780;SDS011;14366;49.184;8.054;2023-05-10T01:42:03;1.30;;;1.20;;
26780;SDS011;14366;49.184;8.054;2023-05-10T01:47:35;1.30;;;1.20;;
26780;SDS011;14366;49.184;8.054;2023-05-10T01:53:08;1.65;;;1.40;;
26780;SDS011;14366;49.184;8.054;2023-05-10T02:03:43;1.30;;;1.20;;
26780;SDS011;14366;49.184;8.054;2023-05-10T02:09:17;1.23;;;1.10;;
26780;SDS011;14366;49.184;8.054;2023-05-10T02:14:48;1.60;;;1.20;;
26780;SDS011;14366;49.184;8.054;2023-05-10T02:25:30;3.10;;;1.50;;
26780;SDS011;14366;49.184;8.054;2023-05-10T02:31:01;1.70;;;1.35;;
26780;SDS011;14366;49.184;8.054;2023-05-10T02:41:39;1.80;;;1.40;;
26780;SDS011;14366;49.184;8.054;2023-05-10T02:52:15;2.47;;;1.60;;
26780;SDS011;14366;49.184;8.054;2023-05-10T03:02:53;2.23;;;1.70;;
26780;SDS011;14366;49.184;8.054;2023-05-10T03:13:32;1.80;;;1.70;;
26780;SDS011;14366;49.184;8.054;2023-05-10T03:24:09;2.00;;;1.73;;
26780;SDS011;14366;49.184;8.054;2023-05-10T03:29:41;2.45;;;1.70;;
26780;SDS011;14366;49.184;8.054;2023-05-10T03:35:13;2.97;;;2.17;;
26780;SDS011;14366;49.184;8.054;2023-05-10T03:40:47;2.75;;;1.90;;
26780;SDS011;14366;49.184;8.054;2023-05-10T03:46:20;5.83;;;2.30;;
26780;SDS011;14366;49.184;8.054;2023-05-10T03:51:38;2.20;;;2.00;;
26780;SDS011;14366;49.184;8.054;2023-05-10T03:56:59;3.30;;;2.20;;
26780;SDS011;14366;49.184;8.054;2023-05-10T04:02:31;3.05;;;2.40;;
26780;SDS011;14366;49.184;8.054;2023-05-10T04:07:51;2.90;;;2.50;;
26780;SDS011;14366;49.184;8.054;2023-05-10T04:13:24;3.57;;;2.40;;
26780;SDS011;14366;49.184;8.054;2023-05-10T04:23:58;2.60;;;2.40;;
26780;SDS011;14366;49.184;8.054;2023-05-10T04:29:16;3.25;;;2.45;;
26780;SDS011;14366;49.184;8.054;2023-05-10T04:39:52;3.63;;;2.40;;
26780;SDS011;14366;49.184;8.054;2023-05-10T04:45:10;3.30;;;2.50;;
26780;SDS011;14366;49.184;8.054;2023-05-10T04:50:43;3.37;;;2.70;;
26780;SDS011;14366;49.184;8.054;2023-05-10T04:56:01;2.40;;;2.20;;
26780;SDS011;14366;49.184;8.054;2023-05-10T05:01:17;4.00;;;2.15;;
26780;SDS011;14366;49.184;8.054;2023-05-10T05:06:50;2.45;;;2.00;;
26780;SDS011;14366;49.184;8.054;2023-05-10T05:12:22;2.20;;;2.00;;
26780;SDS011;14366;49.184;8.054;2023-05-10T05:17:58;1.90;;;1.70;;
26780;SDS011;14366;49.184;8.054;2023-05-10T05:23:34;2.65;;;1.52;;
26780;SDS011;14366;49.184;8.054;2023-05-10T05:29:06;1.80;;;1.70;;
26780;SDS011;14366;49.184;8.054;2023-05-10T05:34:40;2.15;;;1.95;;
26780;SDS011;14366;49.184;8.054;2023-05-10T05:40:16;1.90;;;1.80;;
26780;SDS011;14366;49.184;8.054;2023-05-10T05:45:34;1.73;;;1.63;;
26780;SDS011;14366;49.184;8.054;2023-05-10T05:55:58;2.70;;;1.80;;
26780;SDS011;14366;49.184;8.054;2023-05-10T06:01:32;2.30;;;1.87;;
26780;SDS011;14366;49.184;8.054;2023-05-10T06:07:08;4.90;;;2.10;;
26780;SDS011;14366;49.184;8.054;2023-05-10T06:12:41;2.00;;;1.80;;
26780;SDS011;14366;49.184;8.054;2023-05-10T06:18:16;3.40;;;1.70;;
26780;SDS011;14366;49.184;8.054;2023-05-10T06:23:48;2.23;;;1.70;;
26780;SDS011;14366;49.184;8.054;2023-05-10T06:34:26;3.40;;;1.67;;
26780;SDS011;14366;49.184;8.054;2023-05-10T06:45:02;2.63;;;1.63;;
26780;SDS011;14366;49.184;8.054;2023-05-10T06:50:35;2.10;;;1.53;;
26780;SDS011;14366;49.184;8.054;2023-05-10T06:56:08;1.90;;;1.70;;
26780;SDS011;14366;49.184;8.054;2023-05-10T07:01:44;2.50;;;1.40;;
26780;SDS011;14366;49.184;8.054;2023-05-10T07:07:21;1.70;;;1.60;;
26780;SDS011;14366;49.184;8.054;2023-05-10T07:17:58;1.45;;;1.30;;
26780;SDS011;14366;49.184;8.054;2023-05-10T07:23:20;1.40;;;1.30;;
26780;SDS011;14366;49.184;8.054;2023-05-10T07:28:55;4.20;;;1.50;;
26780;SDS011;14366;49.184;8.054;2023-05-10T07:34:13;1.60;;;1.50;;
26780;SDS011;14366;49.184;8.054;2023-05-10T07:39:34;1.40;;;1.30;;
26780;SDS011;14366;49.184;8.054;2023-05-10T07:45:07;2.37;;;1.80;;
26780;SDS011;14366;49.184;8.054;2023-05-10T07:50:40;2.13;;;1.50;;
26780;SDS011;14366;49.184;8.054;2023-05-10T08:01:38;1.65;;;1.55;;
26780;SDS011;14366;49.184;8.054;2023-05-10T08:06:59;4.10;;;1.50;;
26780;SDS011;14366;49.184;8.054;2023-05-10T08:12:21;2.30;;;1.40;;
26780;SDS011;14366;49.184;8.054;2023-05-10T08:17:52;1.80;;;1.30;;
26780;SDS011;14366;49.184;8.054;2023-05-10T08:23:12;1.60;;;1.30;;
26780;SDS011;14366;49.184;8.054;2023-05-10T08:28:31;1.40;;;1.30;;
26780;SDS011;14366;49.184;8.054;2023-05-10T08:34:02;1.70;;;1.35;;
26780;SDS011;14366;49.184;8.054;2023-05-10T08:39:19;2.10;;;1.00;;
26780;SDS011;14366;49.184;8.054;2023-05-10T08:44:41;2.70;;;1.60;;
26780;SDS011;14366;49.184;8.054;2023-05-10T08:50:13;2.40;;;1.20;;
26780;SDS011;14366;49.184;8.054;2023-05-10T08:55:46;2.50;;;1.20;;
26780;SDS011;14366;49.184;8.054;2023-05-10T09:01:21;1.57;;;1.10;;
26780;SDS011;14366;49.184;8.054;2023-05-10T09:12:00;3.57;;;1.03;;
26780;SDS011;14366;49.184;8.054;2023-05-10T09:22:39;1.50;;;1.30;;
26780;SDS011;14366;49.184;8.054;2023-05-10T09:28:10;1.10;;;1.00;;
26780;SDS011;14366;49.184;8.054;2023-05-10T09:33:44;1.47;;;1.20;;
26780;SDS011;14366;49.184;8.054;2023-05-10T09:39:21;1.80;;;1.30;;
26780;SDS011;14366;49.184;8.054;2023-05-10T09:44:52;1.55;;;1.25;;
26780;SDS011;14366;49.184;8.054;2023-05-10T09:50:13;1.20;;;1.07;;
26780;SDS011;14366;49.184;8.054;2023-05-10T09:55:47;4.03;;;1.43;;
26780;SDS011;14366;49.184;8.054;2023-05-10T10:01:19;4.30;;;1.50;;
26780;SDS011;14366;49.184;8.054;2023-05-10T10:06:58;1.40;;;1.30;;
26780;SDS011;14366;49.184;8.054;2023-05-10T10:12:31;1.65;;;1.45;;
26780;SDS011;14366;49.184;8.054;2023-05-10T10:18:04;2.80;;;1.43;;
26780;SDS011;14366;49.184;8.054;2023-05-10T10:23:39;5.27;;;1.53;;
26780;SDS011;14366;49.184;8.054;2023-05-10T10:29:00;1.80;;;1.30;;
26780;SDS011;14366;49.184;8.054;2023-05-10T10:34:46;2.10;;;1.40;;
26780;SDS011;14366;49.184;8.054;2023-05-10T10:40:25;2.10;;;1.20;;
26780;SDS011;14366;49.184;8.054;2023-05-10T10:46:13;3.13;;;1.37;;
26780;SDS011;14366;49.184;8.054;2023-05-10T10:57:45;1.70;;;1.23;;
26780;SDS011;14366;49.184;8.054;2023-05-10T11:08:27;2.67;;;1.10;;
26780;SDS011;14366;49.184;8.054;2023-05-10T11:19:07;3.00;;;1.10;;
26780;SDS011;14366;49.184;8.054;2023-05-10T11:29:44;2.80;;;1.20;;
26780;SDS011;14366;49.184;8.054;2023-05-10T11:40:20;2.03;;;1.30;;
26780;SDS011;14366;49.184;8.054;2023-05-10T11:46:12;2.95;;;1.40;;
26780;SDS011;14366;49.184;8.054;2023-05-10T11:51:44;1.73;;;1.10;;
26780;SDS011;14366;49.184;8.054;2023-05-10T11:57:17;1.97;;;1.20;;
26780;SDS011;14366;49.184;8.054;2023-05-10T12:02:50;1.63;;;1.43;;
26780;SDS011;14366;49.184;8.054;2023-05-10T12:08:25;1.20;;;1.10;;
26780;SDS011;14366;49.184;8.054;2023-05-10T12:13:59;1.57;;;1.10;;
26780;SDS011;14366;49.184;8.054;2023-05-10T12:19:19;1.95;;;1.05;;
26780;SDS011;14366;49.184;8.054;2023-05-10T12:24:54;4.10;;;1.10;;
26780;SDS011;14366;49.184;8.054;2023-05-10T12:30:11;2.50;;;1.00;;
26780;SDS011;14366;49.184;8.054;2023-05-10T12:35:32;1.23;;;0.93;;
26780;SDS011;14366;49.184;8.054;2023-05-10T12:41:09;0.90;;;0.80;;
26780;SDS011;14366;49.184;8.054;2023-05-10T12:46:43;1.40;;;1.07;;
26780;SDS011;14366;49.184;8.054;2023-05-10T12:52:16;2.47;;;1.10;;
26780;SDS011;14366;49.184;8.054;2023-05-10T12:57:52;1.70;;;0.77;;
26780;SDS011;14366;49.184;8.054;2023-05-10T13:03:12;1.40;;;0.90;;
26780;SDS011;14366;49.184;8.054;2023-05-10T13:08:48;1.93;;;0.90;;
26780;SDS011;14366;49.184;8.054;2023-05-10T13:14:20;2.35;;;1.10;;
26780;SDS011;14366;49.184;8.054;2023-05-10T13:19:52;2.33;;;1.20;;
26780;SDS011;14366;49.184;8.054;2023-05-10T13:25:11;3.20;;;1.17;;
26780;SDS011;14366;49.184;8.054;2023-05-10T13:30:46;1.35;;;1.00;;
26780;SDS011;14366;49.184;8.054;2023-05-10T13:36:04;1.50;;;1.10;;
26780;SDS011;14366;49.184;8.054;2023-05-10T13:41:40;1.43;;;1.10;;
26780;SDS011;14366;49.184;8.054;2023-05-10T13:47:16;1.20;;;1.00;;
26780;SDS011;14366;49.184;8.054;2023-05-10T13:52:36;1.60;;;1.00;;
26780;SDS011;14366;49.184;8.054;2023-05-10T13:58:09;2.60;;;0.95;;
26780;SDS011;14366;49.184;8.054;2023-05-10T14:03:41;0.90;;;0.83;;
26780;SDS011;14366;49.184;8.054;2023-05-10T14:09:10;6.67;;;1.30;;
26780;SDS011;14366;49.184;8.054;2023-05-10T14:14:29;2.23;;;1.10;;
26780;SDS011;14366;49.184;8.054;2023-05-10T14:20:00;1.25;;;0.90;;
26780;SDS011;14366;49.184;8.054;2023-05-10T14:25:33;1.30;;;1.20;;
26780;SDS011;14366;49.184;8.054;2023-05-10T14:30:53;1.75;;;0.90;;
26780;SDS011;14366;49.184;8.054;2023-05-10T14:41:28;1.27;;;0.83;;
26780;SDS011;14366;49.184;8.054;2023-05-10T14:52:07;1.27;;;0.90;;
26780;SDS011;14366;49.184;8.054;2023-05-10T15:02:42;1.10;;;1.00;;
26780;SDS011;14366;49.184;8.054;2023-05-10T15:13:23;1.93;;;1.03;;
26780;SDS011;14366;49.184;8.054;2023-05-10T15:18:57;1.00;;;0.90;;
26780;SDS011;14366;49.184;8.054;2023-05-10T15:24:17;2.10;;;1.07;;
26780;SDS011;14366;49.184;8.054;2023-05-10T15:29:36;2.95;;;1.10;;
26780;SDS011;14366;49.184;8.054;2023-05-10T15:35:08;2.30;;;1.30;;
26780;SDS011;14366;49.184;8.054;2023-05-10T15:40:40;1.15;;;0.70;;
26780;SDS011;14366;49.184;8.054;2023-05-10T15:46:02;1.45;;;1.00;;
26780;SDS011;14366;49.184;8.054;2023-05-10T15:51:33;1.75;;;1.00;;
26780;SDS011;14366;49.184;8.054;2023-05-10T15:57:20;1.70;;;1.00;;
26780;SDS011;14366;49.184;8.054;2023-05-10T16:02:44;2.05;;;1.00;;
26780;SDS011;14366;49.184;8.054;2023-05-10T16:13:19;3.50;;;0.80;;
26780;SDS011;14366;49.184;8.054;2023-05-10T16:23:43;1.97;;;1.10;;
26780;SDS011;14366;49.184;8.054;2023-05-10T16:34:35;4.23;;;1.20;;
26780;SDS011;14366;49.184;8.054;2023-05-10T16:44:58;1.63;;;0.90;;
26780;SDS011;14366;49.184;8.054;2023-05-10T16:50:28;0.97;;;0.80;;
26780;SDS011;14366;49.184;8.054;2023-05-10T16:56:04;1.00;;;0.83;;
26780;SDS011;14366;49.184;8.054;2023-05-10T17:01:24;0.70;;;0.70;;
26780;SDS011;14366;49.184;8.054;2023-05-10T17:06:56;0.80;;;0.80;;
26780;SDS011;14366;49.184;8.054;2023-05-10T17:12:14;2.25;;;0.80;;
26780;SDS011;14366;49.184;8.054;2023-05-10T17:18:05;2.07;;;0.97;;
26780;SDS011;14366;49.184;8.054;2023-05-10T17:23:40;5.30;;;1.23;;
26780;SDS011;14366;49.184;8.054;2023-05-10T17:29:00;1.90;;;1.30;;
26780;SDS011;14366;49.184;8.054;2023-05-10T17:34:34;2.30;;;1.30;;
26780;SDS011;14366;49.184;8.054;2023-05-10T17:40:08;1.57;;;1.00;;
26780;SDS011;14366;49.184;8.054;2023-05-10T17:45:46;2.15;;;1.60;;
26780;SDS011;14366;49.184;8.054;2023-05-10T17:51:19;1.20;;;0.95;;
26780;SDS011;14366;49.184;8.054;2023-05-10T17:56:52;0.87;;;0.87;;
26780;SDS011;14366;49.184;8.054;2023-05-10T18:02:25;2.80;;;1.70;;
26780;SDS011;14366;49.184;8.054;2023-05-10T18:08:01;1.13;;;0.97;;
26780;SDS011;14366;49.184;8.054;2023-05-10T18:13:36;2.70;;;1.25;;
26780;SDS011;14366;49.184;8.054;2023-05-10T18:18:53;1.73;;;1.00;;
26780;SDS011;14366;49.184;8.054;2023-05-10T18:24:26;2.50;;;1.90;;
26780;SDS011;14366;49.184;8.054;2023-05-10T18:29:56;3.40;;;1.30;;
26780;SDS011;14366;49.184;8.054;2023-05-10T18:35:17;2.67;;;1.00;;
26780;SDS011;14366;49.184;8.054;2023-05-10T18:40:35;1.10;;;1.00;;
26780;SDS011;14366;49.184;8.054;2023-05-10T18:46:07;1.35;;;1.10;;
26780;SDS011;14366;49.184;8.054;2023-05-10T18:51:39;1.87;;;1.13;;
26780;SDS011;14366;49.184;8.054;2023-05-10T18:57:15;1.77;;;1.20;;
26780;SDS011;14366;49.184;8.054;2023-05-10T19:02:47;1.40;;;1.10;;
26780;SDS011;14366;49.184;8.054;2023-05-10T19:08:20;3.83;;;1.33;;
26780;SDS011;14366;49.184;8.054;2023-05-10T19:13:53;2.65;;;1.10;;
26780;SDS011;14366;49.184;8.054;2023-05-10T19:19:25;2.15;;;1.10;;
26780;SDS011;14366;49.184;8.054;2023-05-10T19:24:45;1.70;;;1.30;;
26780;SDS011;14366;49.184;8.054;2023-05-10T19:30:05;1.93;;;1.00;;
26780;SDS011;14366;49.184;8.054;2023-05-10T19:35:40;2.65;;;1.00;;
26780;SDS011;14366;49.184;8.054;2023-05-10T19:41:13;1.27;;;1.17;;
26780;SDS011;14366;49.184;8.054;2023-05-10T19:46:46;3.00;;;1.20;;
26780;SDS011;14366;49.184;8.054;2023-05-10T19:52:16;1.40;;;1.10;;
26780;SDS011;14366;49.184;8.054;2023-05-10T19:57:36;1.10;;;1.00;;
26780;SDS011;14366;49.184;8.054;2023-05-10T20:03:10;2.30;;;1.00;;
26780;SDS011;14366;49.184;8.054;2023-05-10T20:08:43;3.03;;;1.20;;
26780;SDS011;14366;49.184;8.054;2023-05-10T20:14:16;2.73;;;1.10;;
26780;SDS011;14366;49.184;8.054;2023-05-10T20:19:48;1.20;;;1.10;;
26780;SDS011;14366;49.184;8.054;2023-05-10T20:25:20;1.10;;;1.00;;
26780;SDS011;14366;49.184;8.054;2023-05-10T20:30:51;2.63;;;1.30;;
26780;SDS011;14366;49.184;8.054;2023-05-10T20:36:24;2.65;;;1.25;;
26780;SDS011;14366;49.184;8.054;2023-05-10T20:41:55;1.63;;;1.03;;
26780;SDS011;14366;49.184;8.054;2023-05-10T20:47:27;1.45;;;1.20;;
26780;SDS011;14366;49.184;8.054;2023-05-10T20:53:01;1.73;;;1.03;;
26780;SDS011;14366;49.184;8.054;2023-05-10T20:58:32;1.53;;;1.10;;
26780;SDS011;14366;49.184;8.054;2023-05-10T21:03:52;1.43;;;1.10;;
26780;SDS011;14366;49.184;8.054;2023-05-10T21:09:27;2.30;;;1.30;;
26780;SDS011;14366;49.184;8.054;2023-05-10T21:14:59;2.10;;;1.20;;
26780;SDS011;14366;49.184;8.054;2023-05-10T21:20:31;1.23;;;1.10;;
26780;SDS011;14366;49.184;8.054;2023-05-10T21:26:06;1.50;;;1.10;;
26780;SDS011;14366;49.184;8.054;2023-05-10T21:31:37;2.55;;;1.20;;
26780;SDS011;14366;49.184;8.054;2023-05-10T21:37:10;2.30;;;1.20;;
26780;SDS011;14366;49.184;8.054;2023-05-10T21:42:29;3.67;;;1.50;;
26780;SDS011;14366;49.184;8.054;2023-05-10T21:53:04;1.27;;;1.10;;
26780;SDS011;14366;49.184;8.054;2023-05-10T22:03:28;1.30;;;0.93;;
26780;SDS011;14366;49.184;8.054;2023-05-10T22:09:02;1.50;;;1.00;;
26780;SDS011;14366;49.184;8.054;2023-05-10T22:14:37;1.43;;;1.10;;
26780;SDS011;14366;49.184;8.054;2023-05-10T22:20:11;1.10;;;1.00;;
26780;SDS011;14366;49.184;8.054;2023-05-10T22:25:47;1.80;;;1.20;;
26780;SDS011;14366;49.184;8.054;2023-05-10T22:31:19;1.77;;;1.10;;
26780;SDS011;14366;49.184;8.054;2023-05-10T22:36:38;1.10;;;1.00;;
26780;SDS011;14366;49.184;8.054;2023-05-10T22:42:09;1.10;;;1.00;;
26780;SDS011;14366;49.184;8.054;2023-05-10T22:47:27;1.10;;;1.00;;
26780;SDS011;14366;49.184;8.054;2023-05-10T22:53:01;3.05;;;1.25;;
26780;SDS011;14366;49.184;8.054;2023-05-10T22:58:31;1.50;;;1.10;;
26780;SDS011;14366;49.184;8.054;2023-05-10T23:04:07;1.95;;;1.10;;
26780;SDS011;14366;49.184;8.054;2023-05-10T23:09:40;2.25;;;1.15;;
26780;SDS011;14366;49.184;8.054;2023-05-10T23:15:12;2.80;;;1.20;;
26780;SDS011;14366;49.184;8.054;2023-05-10T23:20:48;1.95;;;1.00;;
26780;SDS011;14366;49.184;8.054;2023-05-10T23:26:09;2.40;;;1.20;;
26780;SDS011;14366;49.184;8.054;2023-05-10T23:31:41;3.10;;;1.30;;
26780;SDS011;14366;49.184;8.054;2023-05-10T23:37:13;1.50;;;1.10;;
26780;SDS011;14366;49.184;8.054;2023-05-10T23:42:49;1.20;;;1.10;;
26780;SDS011;14366;49.184;8.054;2023-05-10T23:48:25;1.73;;;1.00;;
26780;SDS011;14366;49.184;8.054;2023-05-10T23:53:58;1.30;;;1.20;;
26780;SDS011;14366;49.184;8.054;2023-05-10T23:59:31;1.40;;;1.20;;
